createdAt,value
2022-10-11T00:01:48.895Z,101411.56
2022-10-11T00:04:28.621Z,101412.75
2022-10-11T00:07:08.566Z,101421.69
2022-10-11T00:09:48.238Z,101439.03
2022-10-11T00:12:27.982Z,101432.78
2022-10-11T00:15:09.493Z,101438.69
2022-10-11T00:17:51.257Z,101443.22
2022-10-11T00:20:30.558Z,101450.59
2022-10-11T00:23:10.385Z,101454.81
2022-10-11T00:25:58.928Z,101458.81
2022-10-11T00:28:40.342Z,101460.00
2022-10-11T00:31:21.174Z,101466.22
2022-10-11T00:34:00.963Z,101470.41
2022-10-11T00:36:40.571Z,101472.09
2022-10-11T00:39:20.442Z,101485.81
2022-10-11T00:42:00.214Z,101483.47
2022-10-11T00:44:43.939Z,101476.38
2022-10-11T00:47:25.895Z,101481.97
2022-10-11T00:50:09.339Z,101489.75
2022-10-11T00:52:53.848Z,101495.50
2022-10-11T00:55:40.001Z,101492.06
2022-10-11T00:58:21.298Z,101492.00
2022-10-11T01:01:01.153Z,101500.31
2022-10-11T01:03:41.928Z,101504.66
2022-10-11T01:06:22.301Z,101502.63
2022-10-11T01:09:02.200Z,101511.50
2022-10-11T01:11:44.362Z,101511.56
2022-10-11T01:14:43.884Z,101520.63
2022-10-11T01:17:35.470Z,101516.28
2022-10-11T01:20:28.116Z,101519.13
2022-10-11T01:23:41.281Z,101523.19
2022-10-11T01:26:41.390Z,101524.22
2022-10-11T01:29:33.704Z,101539.09
2022-10-11T01:32:16.918Z,101536.38
2022-10-11T01:35:01.051Z,101544.63
2022-10-11T01:37:45.025Z,101546.97
2022-10-11T01:40:27.854Z,101547.00
2022-10-11T01:43:07.865Z,101543.44
2022-10-11T01:45:51.608Z,101545.41
2022-10-11T01:48:32.184Z,101549.38
2022-10-11T01:51:12.102Z,101547.16
2022-10-11T01:54:25.785Z,101551.50
2022-10-11T01:57:35.152Z,101557.03
2022-10-11T02:00:17.722Z,101549.38
2022-10-11T02:03:20.253Z,101560.53
2022-10-11T02:06:05.318Z,101562.41
2022-10-11T02:08:53.652Z,101569.34
2022-10-11T02:11:36.152Z,101576.38
2022-10-11T02:14:19.706Z,101570.75
2022-10-11T02:17:04.058Z,101571.44
2022-10-11T02:19:48.419Z,101575.63
2022-10-11T02:22:31.460Z,101576.66
2022-10-11T02:25:18.276Z,101585.03
2022-10-11T02:28:02.828Z,101581.34
2022-10-11T02:30:45.949Z,101583.31
2022-10-11T02:33:32.686Z,101580.41
2022-10-11T02:36:18.189Z,101581.59
2022-10-11T02:39:06.320Z,101586.31
2022-10-11T02:41:48.926Z,101587.66
2022-10-11T02:44:34.003Z,101590.31
2022-10-11T02:47:15.300Z,101593.16
2022-10-11T02:49:55.679Z,101590.06
2022-10-11T02:52:35.428Z,101594.47
2022-10-11T02:55:15.236Z,101600.56
2022-10-11T02:57:55.267Z,101595.94
2022-10-11T03:00:34.855Z,101602.47
2022-10-11T03:03:14.791Z,101614.28
2022-10-11T03:05:59.166Z,101601.44
2022-10-11T03:08:39.044Z,101606.41
2022-10-11T03:11:18.827Z,101613.22
2022-10-11T03:13:58.733Z,101628.84
2022-10-11T03:16:38.431Z,101636.47
2022-10-11T03:19:19.464Z,101635.59
2022-10-11T03:21:59.658Z,101638.31
2022-10-11T03:24:39.465Z,101646.81
2022-10-11T03:27:19.228Z,101646.38
2022-10-11T03:30:02.749Z,101645.69
2022-10-11T03:32:42.034Z,101644.63
2022-10-11T03:35:23.920Z,101660.19
2022-10-11T03:38:03.228Z,101659.63
2022-10-11T03:40:43.765Z,101657.66
2022-10-11T03:43:24.512Z,101655.63
2022-10-11T03:46:04.575Z,101658.44
2022-10-11T03:48:45.587Z,101667.84
2022-10-11T03:51:25.562Z,101669.44
2022-10-11T03:54:05.252Z,101669.19
2022-10-11T03:56:45.299Z,101670.38
2022-10-11T03:59:28.021Z,101675.13
2022-10-11T04:02:07.907Z,101682.78
2022-10-11T04:04:47.812Z,101682.16
2022-10-11T04:07:27.394Z,101683.94
2022-10-11T04:10:08.582Z,101689.28
2022-10-11T04:12:48.574Z,101691.69
2022-10-11T04:15:28.456Z,101701.91
2022-10-11T04:18:08.701Z,101701.66
2022-10-11T04:20:47.962Z,101704.47
2022-10-11T04:23:27.902Z,101703.75
2022-10-11T04:26:08.945Z,101707.44
2022-10-11T04:28:48.976Z,101708.19
2022-10-11T04:31:28.795Z,101714.84
2022-10-11T04:34:08.562Z,101710.81
2022-10-11T04:36:50.050Z,101717.47
2022-10-11T04:39:31.856Z,101720.19
2022-10-11T04:42:12.813Z,101722.63
2022-10-11T04:44:52.561Z,101720.69
2022-10-11T04:47:34.140Z,101719.50
2022-10-11T04:50:13.773Z,101727.16
2022-10-11T04:52:53.511Z,101727.16
2022-10-11T04:55:33.383Z,101721.66
2022-10-11T04:58:13.086Z,101728.28
2022-10-11T05:00:52.944Z,101736.16
2022-10-11T05:03:32.763Z,101742.00
2022-10-11T05:06:13.109Z,101740.78
2022-10-11T05:08:53.953Z,101749.69
2022-10-11T05:11:34.718Z,101746.22
2022-10-11T05:14:15.143Z,101746.47
2022-10-11T05:16:54.945Z,101757.19
2022-10-11T05:19:34.713Z,101753.56
2022-10-11T05:22:14.477Z,101761.88
2022-10-11T05:24:54.293Z,101764.84
2022-10-11T05:27:34.076Z,101765.84
2022-10-11T05:30:14.304Z,101773.56
2022-10-11T05:32:53.699Z,101778.75
2022-10-11T05:35:33.491Z,101782.22
2022-10-11T05:38:13.295Z,101789.63
2022-10-11T05:40:53.297Z,101794.91
2022-10-11T05:43:33.603Z,101797.16
2022-10-11T05:46:14.941Z,101798.31
2022-10-11T05:48:55.799Z,101791.50
2022-10-11T05:51:35.573Z,101793.06
2022-10-11T05:54:15.313Z,101799.69
2022-10-11T05:56:55.092Z,101797.06
2022-10-11T05:59:36.082Z,101806.25
2022-10-11T06:02:16.647Z,101809.03
2022-10-11T06:04:56.071Z,101813.28
2022-10-11T06:07:36.698Z,101813.28
2022-10-11T06:10:17.320Z,101821.78
2022-10-11T06:13:00.797Z,101823.97
2022-10-11T06:16:13.380Z,101821.50
2022-10-11T06:19:22.617Z,101826.50
2022-10-11T06:22:15.896Z,101829.81
2022-10-11T06:25:15.999Z,101833.38
2022-10-11T06:28:12.969Z,101845.25
2022-10-11T06:31:07.059Z,101844.13
2022-10-11T06:34:16.111Z,101853.38
2022-10-11T06:37:18.116Z,101844.66
2022-10-11T06:40:14.942Z,101856.53
2022-10-11T06:43:17.754Z,101859.63
2022-10-11T06:46:11.599Z,101865.19
2022-10-11T06:49:08.110Z,101873.69
2022-10-11T06:52:11.561Z,101867.09
2022-10-11T06:55:09.768Z,101878.53
2022-10-11T06:58:15.850Z,101878.53
2022-10-11T07:01:11.075Z,101884.41
2022-10-11T07:04:05.297Z,101895.25
2022-10-11T07:07:02.106Z,101893.94
2022-10-11T07:09:59.456Z,101893.25
2022-10-11T07:13:14.833Z,101898.53
2022-10-11T07:16:14.356Z,101902.13
2022-10-11T07:19:11.916Z,101909.97
2022-10-11T07:22:09.232Z,101915.38
2022-10-11T07:25:02.901Z,101915.72
2022-10-11T07:27:59.811Z,101923.84
2022-10-11T07:30:52.857Z,101921.06
2022-10-11T07:33:50.424Z,101930.41
2022-10-11T07:36:47.972Z,101927.19
2022-10-11T07:39:41.800Z,101936.97
2022-10-11T07:42:36.024Z,101934.25
2022-10-11T07:45:33.238Z,101945.28
2022-10-11T07:48:29.323Z,101954.84
2022-10-11T07:51:26.485Z,101952.44
2022-10-11T07:54:23.570Z,101943.09
2022-10-11T07:57:20.731Z,101952.91
2022-10-11T08:00:18.067Z,101951.47
2022-10-11T08:03:14.963Z,101948.16
2022-10-11T08:06:17.033Z,101962.06
2022-10-11T08:09:19.806Z,101960.53
2022-10-11T08:12:13.146Z,101956.81
2022-10-11T08:15:08.511Z,101961.06
2022-10-11T08:18:07.420Z,101959.34
2022-10-11T08:21:08.664Z,101958.44
2022-10-11T08:24:07.450Z,101962.81
2022-10-11T08:27:13.856Z,101965.44
2022-10-11T08:30:08.351Z,101968.50
2022-10-11T08:33:08.547Z,101965.50
2022-10-11T08:36:14.388Z,101969.47
2022-10-11T08:39:15.645Z,101966.56
2022-10-11T08:42:32.081Z,101976.84
2022-10-11T08:45:33.341Z,101972.78
2022-10-11T08:48:39.280Z,101979.38
2022-10-11T08:51:39.118Z,101974.91
2022-10-11T08:54:39.160Z,101988.22
2022-10-11T08:57:50.389Z,101985.41
2022-10-11T09:00:45.513Z,101980.88
2022-10-11T09:03:35.793Z,101989.66
2022-10-11T09:06:25.571Z,101985.72
2022-10-11T09:09:28.554Z,101996.44
2022-10-11T09:12:18.496Z,101992.56
2022-10-11T09:15:12.097Z,102002.34
2022-10-11T09:18:09.632Z,101992.28
2022-10-11T09:21:14.720Z,101996.22
2022-10-11T09:24:37.788Z,101993.09
2022-10-11T09:27:18.637Z,101988.00
2022-10-11T09:29:58.302Z,101991.75
2022-10-11T09:32:31.253Z,101994.97
2022-10-11T09:35:02.953Z,101997.53
2022-10-11T09:37:36.440Z,102001.00
2022-10-11T09:40:19.978Z,101995.41
2022-10-11T09:42:47.737Z,102006.13
2022-10-11T09:45:19.137Z,102001.72
2022-10-11T09:47:52.291Z,101996.78
2022-10-11T09:50:23.203Z,101987.53
2022-10-11T09:52:52.401Z,101997.38
2022-10-11T09:55:36.639Z,101992.88
2022-10-11T09:58:06.006Z,101993.69
2022-10-11T10:00:34.559Z,101983.88
2022-10-11T10:03:04.523Z,101997.81
2022-10-11T10:05:33.787Z,101991.41
2022-10-11T10:08:23.934Z,101995.03
2022-10-11T10:11:03.223Z,102003.16
2022-10-11T10:13:43.076Z,102002.25
2022-10-11T10:16:22.550Z,102000.81
2022-10-11T10:18:54.421Z,101998.63
2022-10-11T10:21:28.463Z,102006.88
2022-10-11T10:23:57.687Z,101999.69
2022-10-11T10:26:28.482Z,102015.78
2022-10-11T10:29:03.186Z,102006.38
2022-10-11T10:31:49.446Z,102007.50
2022-10-11T10:34:28.013Z,102011.13
2022-10-11T10:37:01.128Z,102011.25
2022-10-11T10:39:37.868Z,102010.72
2022-10-11T10:42:14.382Z,102014.22
2022-10-11T10:44:42.640Z,102015.06
2022-10-11T10:47:19.437Z,102021.50
2022-10-11T10:49:56.137Z,102018.84
2022-10-11T10:52:48.821Z,102021.28
2022-10-11T10:55:24.629Z,102011.53
2022-10-11T10:58:11.365Z,102016.94
2022-10-11T11:00:46.660Z,102011.75
2022-10-11T11:03:22.697Z,102019.88
2022-10-11T11:06:00.789Z,102020.09
2022-10-11T11:08:48.283Z,102015.78
2022-10-11T11:11:30.093Z,102017.88
2022-10-11T11:14:04.973Z,102021.28
2022-10-11T11:16:39.740Z,102020.34
2022-10-11T11:19:21.042Z,102018.34
2022-10-11T11:22:00.182Z,102011.78
2022-10-11T11:24:38.715Z,102014.16
2022-10-11T11:27:17.215Z,102008.84
2022-10-11T11:29:56.736Z,102013.81
2022-10-11T11:32:34.837Z,102005.28
2022-10-11T11:35:10.293Z,102008.38
2022-10-11T11:37:41.408Z,102016.31
2022-10-11T11:40:17.857Z,102010.00
2022-10-11T11:42:49.299Z,102010.44
2022-10-11T11:45:24.549Z,102012.78
2022-10-11T11:47:59.791Z,102011.59
2022-10-11T11:50:40.073Z,102009.53
2022-10-11T11:53:15.175Z,102003.59
2022-10-11T11:55:49.463Z,102006.91
2022-10-11T11:58:26.258Z,102014.06
2022-10-11T12:01:02.230Z,102001.56
2022-10-11T12:03:39.305Z,102009.13
2022-10-11T12:06:22.953Z,102008.91
2022-10-11T12:09:01.967Z,102003.81
2022-10-11T12:11:40.596Z,102005.22
2022-10-11T12:14:27.491Z,101997.59
2022-10-11T12:17:21.129Z,102000.59
2022-10-11T12:20:14.469Z,101994.47
2022-10-11T12:23:00.102Z,102001.06
2022-10-11T12:25:37.706Z,101999.81
2022-10-11T12:28:38.800Z,102004.81
2022-10-11T12:31:18.114Z,102000.22
2022-10-11T12:34:03.769Z,102001.31
2022-10-11T12:36:40.440Z,102002.38
2022-10-11T12:39:47.692Z,101995.28
2022-10-11T12:42:28.161Z,101999.34
2022-10-11T12:45:33.886Z,102005.34
2022-10-11T12:48:18.440Z,101988.72
2022-10-11T12:50:51.763Z,102003.53
2022-10-11T12:53:33.867Z,101995.69
2022-10-11T12:56:08.251Z,101990.22
2022-10-11T12:58:41.317Z,101993.94
2022-10-11T13:01:13.819Z,101990.53
2022-10-11T13:03:43.848Z,101998.44
2022-10-11T13:06:17.645Z,101989.50
2022-10-11T13:08:50.474Z,101998.47
2022-10-11T13:11:22.053Z,101997.56
2022-10-11T13:13:54.929Z,101997.94
2022-10-11T13:16:27.596Z,102000.22
2022-10-11T13:18:58.447Z,101996.94
2022-10-11T13:21:35.963Z,101994.94
2022-10-11T13:24:10.700Z,101995.91
2022-10-11T13:26:39.137Z,101997.25
2022-10-11T13:29:15.963Z,101992.06
2022-10-11T13:31:46.733Z,101998.44
2022-10-11T13:34:16.787Z,102005.75
2022-10-11T13:36:49.274Z,102002.31
2022-10-11T13:39:35.179Z,102004.13
2022-10-11T13:42:08.683Z,101998.72
2022-10-11T13:44:38.449Z,101996.81
2022-10-11T13:47:06.900Z,101998.38
2022-10-11T13:49:40.360Z,102008.91
2022-10-11T13:52:22.297Z,101991.75
2022-10-11T13:55:11.533Z,101998.53
2022-10-11T13:57:43.087Z,101997.81
2022-10-11T14:00:26.737Z,101992.59
2022-10-11T14:02:59.807Z,101986.75
2022-10-11T14:05:31.295Z,101991.25
2022-10-11T14:08:03.353Z,101990.53
2022-10-11T14:10:31.545Z,102003.09
2022-10-11T14:13:02.298Z,101992.72
2022-10-11T14:15:32.906Z,101994.81
2022-10-11T14:18:01.740Z,102001.88
2022-10-11T14:20:38.289Z,101995.03
2022-10-11T14:23:08.038Z,102002.75
2022-10-11T14:25:35.941Z,101997.59
2022-10-11T14:28:05.648Z,101997.91
2022-10-11T14:30:34.250Z,101999.94
2022-10-11T14:33:02.940Z,101998.22
2022-10-11T14:35:35.376Z,102005.03
2022-10-11T14:38:03.333Z,102000.56
2022-10-11T14:40:32.861Z,101999.59
2022-10-11T14:43:00.689Z,101996.44
2022-10-11T14:45:28.527Z,101996.66
2022-10-11T14:47:57.209Z,101998.84
2022-10-11T14:50:36.385Z,101992.94
2022-10-11T14:53:05.737Z,101987.97
2022-10-11T14:55:36.623Z,101998.03
2022-10-11T14:58:04.488Z,102001.34
2022-10-11T15:00:33.096Z,101998.81
2022-10-11T15:03:00.908Z,102000.28
2022-10-11T15:05:33.975Z,101998.19
2022-10-11T15:08:02.364Z,102005.09
2022-10-11T15:10:35.466Z,102007.47
2022-10-11T15:13:06.951Z,101998.69
2022-10-11T15:15:36.739Z,101993.72
2022-10-11T15:18:06.990Z,101996.97
2022-10-11T15:20:37.020Z,101992.56
2022-10-11T15:23:06.074Z,101995.19
2022-10-11T15:25:34.596Z,101991.06
2022-10-11T15:28:03.912Z,101997.56
2022-10-11T15:30:40.112Z,101996.38
2022-10-11T15:33:10.025Z,101992.66
2022-10-11T15:35:37.838Z,101993.63
2022-10-11T15:38:05.704Z,101996.94
2022-10-11T15:40:36.038Z,101985.72
2022-10-11T15:43:05.765Z,101989.53
2022-10-11T15:45:33.678Z,101989.72
2022-10-11T15:48:01.959Z,101998.53
2022-10-11T15:50:35.029Z,101991.66
2022-10-11T15:53:03.827Z,102003.63
2022-10-11T15:55:33.101Z,102005.09
2022-10-11T15:58:02.102Z,102006.78
2022-10-11T16:00:31.794Z,102007.31
2022-10-11T16:03:00.562Z,102013.28
2022-10-11T16:05:29.417Z,102003.41
2022-10-11T16:07:57.272Z,102013.03
2022-10-11T16:10:25.082Z,102003.19
2022-10-11T16:12:53.139Z,102005.72
2022-10-11T16:15:20.985Z,102008.47
2022-10-11T16:17:50.348Z,102009.78
2022-10-11T16:20:22.183Z,102013.59
2022-10-11T16:22:50.974Z,102020.97
2022-10-11T16:25:19.466Z,102019.31
2022-10-11T16:27:47.710Z,102021.09
2022-10-11T16:30:17.283Z,102017.81
2022-10-11T16:32:45.341Z,102016.47
2022-10-11T16:35:15.922Z,102018.84
2022-10-11T16:37:44.175Z,102020.50
2022-10-11T16:40:15.821Z,102019.06
2022-10-11T16:42:44.826Z,102023.44
2022-10-11T16:45:13.348Z,102022.25
2022-10-11T16:47:41.863Z,102028.56
2022-10-11T16:50:10.665Z,102023.16
2022-10-11T16:52:39.955Z,102027.44
2022-10-11T16:55:08.344Z,102019.13
2022-10-11T16:57:37.748Z,102024.06
2022-10-11T17:00:07.354Z,102023.41
2022-10-11T17:02:36.137Z,102029.50
2022-10-11T17:05:04.432Z,102033.00
2022-10-11T17:07:32.570Z,102034.78
2022-10-11T17:10:01.960Z,102030.03
2022-10-11T17:12:31.878Z,102042.91
2022-10-11T17:14:59.760Z,102037.06
2022-10-11T17:17:28.060Z,102042.22
2022-10-11T17:19:55.897Z,102036.34
2022-10-11T17:22:24.067Z,102037.41
2022-10-11T17:24:51.861Z,102044.63
2022-10-11T17:27:21.098Z,102040.75
2022-10-11T17:29:48.949Z,102045.50
2022-10-11T17:32:16.775Z,102044.06
2022-10-11T17:34:44.556Z,102038.16
2022-10-11T17:37:12.577Z,102042.63
2022-10-11T17:39:40.417Z,102046.38
2022-10-11T17:42:08.562Z,102043.19
2022-10-11T17:44:38.099Z,102043.38
2022-10-11T17:47:06.041Z,102046.59
2022-10-11T17:49:33.985Z,102045.53
2022-10-11T17:52:01.825Z,102044.38
2022-10-11T17:54:29.620Z,102049.09
2022-10-11T17:56:57.433Z,102055.50
2022-10-11T17:59:27.485Z,102048.63
2022-10-11T18:01:56.756Z,102048.84
2022-10-11T18:04:26.963Z,102049.75
2022-10-11T18:06:54.969Z,102042.03
2022-10-11T18:09:23.794Z,102051.06
2022-10-11T18:11:51.989Z,102053.63
2022-10-11T18:14:19.982Z,102051.16
2022-10-11T18:16:47.887Z,102045.81
2022-10-11T18:19:17.215Z,102046.88
2022-10-11T18:21:45.059Z,102042.41
2022-10-11T18:24:15.309Z,102046.88
2022-10-11T18:26:43.560Z,102045.69
2022-10-11T18:29:12.484Z,102053.00
2022-10-11T18:31:41.013Z,102050.31
2022-10-11T18:34:14.726Z,102044.81
2022-10-11T18:36:44.103Z,102053.06
2022-10-11T18:39:14.648Z,102044.25
2022-10-11T18:41:44.523Z,102052.28
2022-10-11T18:44:15.215Z,102050.56
2022-10-11T18:46:43.904Z,102050.91
2022-10-11T18:49:12.703Z,102052.69
2022-10-11T18:51:42.113Z,102045.75
2022-10-11T18:54:16.705Z,102046.25
2022-10-11T18:56:48.171Z,102049.78
2022-10-11T18:59:16.329Z,102049.88
2022-10-11T19:01:45.492Z,102049.09
2022-10-11T19:04:16.793Z,102044.97
2022-10-11T19:06:48.257Z,102045.13
2022-10-11T19:09:21.719Z,102046.31
2022-10-11T19:11:50.871Z,102049.91
2022-10-11T19:14:21.933Z,102038.66
2022-10-11T19:16:51.789Z,102043.91
2022-10-11T19:19:21.306Z,102038.13
2022-10-11T19:21:49.633Z,102036.41
2022-10-11T19:24:21.311Z,102031.66
2022-10-11T19:26:52.994Z,102042.78
2022-10-11T19:29:23.579Z,102037.25
2022-10-11T19:31:53.973Z,102037.53
2022-10-11T19:34:23.110Z,102043.56
2022-10-11T19:36:53.350Z,102035.91
2022-10-11T19:39:24.614Z,102037.09
2022-10-11T19:41:52.953Z,102035.59
2022-10-11T19:44:21.520Z,102043.56
2022-10-11T19:46:52.294Z,102046.28
2022-10-11T19:49:22.750Z,102046.47
2022-10-11T19:51:51.727Z,102037.81
2022-10-11T19:54:19.971Z,102039.72
2022-10-11T19:56:49.640Z,102046.16
2022-10-11T19:59:17.885Z,102049.75
2022-10-11T20:01:52.067Z,102051.56
2022-10-11T20:07:09.384Z,102039.72
2022-10-11T20:09:37.660Z,102042.47
2022-10-11T20:12:07.770Z,102044.38
2022-10-11T20:14:35.733Z,102046.06
2022-10-11T20:17:03.754Z,102057.22
2022-10-11T20:19:31.911Z,102049.34
2022-10-11T20:22:00.486Z,102046.06
2022-10-11T20:24:32.525Z,102051.47
2022-10-11T20:27:01.493Z,102049.94
2022-10-11T20:29:30.815Z,102049.16
2022-10-11T20:31:58.885Z,102045.81
2022-10-11T20:34:27.619Z,102052.16
2022-10-11T20:36:55.566Z,102048.81
2022-10-11T20:39:23.685Z,102061.16
2022-10-11T20:41:51.582Z,102059.66
2022-10-11T20:44:19.515Z,102065.16
2022-10-11T20:46:48.752Z,102058.44
2022-10-11T20:49:16.558Z,102054.22
2022-10-11T20:51:44.451Z,102060.69
2022-10-11T20:54:12.624Z,102054.56
2022-10-11T20:56:40.820Z,102054.66
2022-10-11T20:59:09.144Z,102059.97
2022-10-11T21:01:38.850Z,102061.06
2022-10-11T21:04:11.315Z,102060.34
2022-10-11T21:06:39.307Z,102053.50
2022-10-11T21:09:08.522Z,102056.91
2022-10-11T21:11:38.120Z,102054.44
2022-10-11T21:14:07.160Z,102054.63
2022-10-11T21:16:37.509Z,102053.75
2022-10-11T21:19:06.173Z,102061.00
2022-10-11T21:21:35.363Z,102056.72
2022-10-11T21:24:03.783Z,102060.25
2022-10-11T21:26:32.148Z,102060.38
2022-10-11T21:29:00.202Z,102067.88
2022-10-11T21:31:33.616Z,102058.50
2022-10-11T21:34:02.171Z,102072.22
2022-10-11T21:36:30.076Z,102073.88
2022-10-11T21:38:59.142Z,102076.88
2022-10-11T21:41:29.826Z,102078.06
2022-10-11T21:43:58.031Z,102076.34
2022-10-11T21:46:47.543Z,102078.50
2022-10-11T21:49:15.410Z,102080.44
2022-10-11T21:51:43.461Z,102073.50
2022-10-11T21:54:12.652Z,102067.38
2022-10-11T21:56:40.437Z,102064.75
2022-10-11T21:59:11.247Z,102066.78
2022-10-11T22:01:40.678Z,102071.94
2022-10-11T22:04:08.619Z,102066.16
2022-10-11T22:06:36.947Z,102064.28
2022-10-11T22:09:05.562Z,102065.31
2022-10-11T22:11:35.112Z,102068.84
2022-10-11T22:14:02.862Z,102067.00
2022-10-11T22:16:30.769Z,102063.44
2022-10-11T22:18:59.925Z,102065.31
2022-10-11T22:21:27.862Z,102055.84
2022-10-11T22:23:55.895Z,102065.66
2022-10-11T22:26:26.944Z,102059.59
2022-10-11T22:28:56.138Z,102063.84
2022-10-11T22:31:24.568Z,102060.56
2022-10-11T22:33:54.735Z,102066.94
2022-10-11T22:36:24.093Z,102059.88
2022-10-11T22:38:53.048Z,102065.47
2022-10-11T22:41:21.025Z,102063.75
2022-10-11T22:43:48.827Z,102057.56
2022-10-11T22:46:18.156Z,102060.09
2022-10-11T22:48:45.965Z,102054.88
2022-10-11T22:51:14.357Z,102056.16
2022-10-11T22:53:42.241Z,102058.75
2022-10-11T22:56:11.184Z,102059.09
2022-10-11T22:58:38.942Z,102058.69
2022-10-11T23:01:08.270Z,102060.69
2022-10-11T23:03:37.557Z,102056.13
2022-10-11T23:06:05.637Z,102057.81
2022-10-11T23:08:33.486Z,102057.13
2022-10-11T23:11:03.936Z,102062.28
2022-10-11T23:13:31.726Z,102056.31
2022-10-11T23:15:59.545Z,102051.66
2022-10-11T23:18:27.330Z,102059.91
2022-10-11T23:20:56.429Z,102052.06
2022-10-11T23:23:24.163Z,102057.94
2022-10-11T23:26:01.379Z,102061.38
2022-10-11T23:28:29.308Z,102065.88
2022-10-11T23:30:57.177Z,102059.91
2022-10-11T23:33:25.145Z,102060.78
2022-10-11T23:35:52.908Z,102066.25
2022-10-11T23:38:22.012Z,102066.19
2022-10-11T23:40:49.737Z,102061.84
2022-10-11T23:43:17.478Z,102065.28
2022-10-11T23:45:45.281Z,102074.03
2022-10-11T23:48:13.208Z,102073.25
2022-10-11T23:50:40.941Z,102069.31
2022-10-11T23:53:08.673Z,102075.28
2022-10-11T23:55:37.734Z,102069.09
2022-10-11T23:58:05.487Z,102076.03
